sensor_id;sensor_type;location;lat;lon;timestamp;temperature;humidity
84389;DHT22;74589;48.846;2.382;2024-02-23T00:01:47;9.60;5.20
84389;DHT22;74589;48.846;2.382;2024-02-23T00:04:13;9.70;4.40
84389;DHT22;74589;48.846;2.382;2024-02-23T00:06:39;9.60;5.20
84389;DHT22;74589;48.846;2.382;2024-02-23T00:09:04;9.60;5.30
84389;DHT22;74589;48.846;2.382;2024-02-23T00:11:30;9.70;5.10
84389;DHT22;74589;48.846;2.382;2024-02-23T00:13:58;9.60;5.10
84389;DHT22;74589;48.846;2.382;2024-02-23T00:16:24;9.60;5.20
84389;DHT22;74589;48.846;2.382;2024-02-23T00:18:50;9.70;5.10
84389;DHT22;74589;48.846;2.382;2024-02-23T00:21:16;9.60;5.40
84389;DHT22;74589;48.846;2.382;2024-02-23T00:23:41;9.60;5.10
84389;DHT22;74589;48.846;2.382;2024-02-23T00:26:07;9.60;4.90
84389;DHT22;74589;48.846;2.382;2024-02-23T00:28:32;9.60;4.90
84389;DHT22;74589;48.846;2.382;2024-02-23T00:30:58;9.50;5.00
84389;DHT22;74589;48.846;2.382;2024-02-23T00:33:24;9.40;5.70
84389;DHT22;74589;48.846;2.382;2024-02-23T00:35:49;9.40;5.70
84389;DHT22;74589;48.846;2.382;2024-02-23T00:38:15;9.50;5.80
84389;DHT22;74589;48.846;2.382;2024-02-23T00:40:40;9.50;5.40
84389;DHT22;74589;48.846;2.382;2024-02-23T00:43:06;9.60;5.40
84389;DHT22;74589;48.846;2.382;2024-02-23T00:45:32;9.50;6.00
84389;DHT22;74589;48.846;2.382;2024-02-23T00:47:57;9.60;5.30
84389;DHT22;74589;48.846;2.382;2024-02-23T00:50:23;9.40;5.90
84389;DHT22;74589;48.846;2.382;2024-02-23T00:52:52;9.30;6.20
84389;DHT22;74589;48.846;2.382;2024-02-23T00:55:18;9.20;6.40
84389;DHT22;74589;48.846;2.382;2024-02-23T00:57:43;9.30;6.40
84389;DHT22;74589;48.846;2.382;2024-02-23T01:00:11;9.40;6.50
84389;DHT22;74589;48.846;2.382;2024-02-23T01:02:40;9.30;6.80
84389;DHT22;74589;48.846;2.382;2024-02-23T01:05:06;9.50;5.90
84389;DHT22;74589;48.846;2.382;2024-02-23T01:07:34;9.50;6.50
84389;DHT22;74589;48.846;2.382;2024-02-23T01:10:00;9.50;6.90
84389;DHT22;74589;48.846;2.382;2024-02-23T01:12:27;9.50;6.50
84389;DHT22;74589;48.846;2.382;2024-02-23T01:14:53;9.50;6.70
84389;DHT22;74589;48.846;2.382;2024-02-23T01:17:19;9.60;5.90
84389;DHT22;74589;48.846;2.382;2024-02-23T01:19:44;9.50;6.70
84389;DHT22;74589;48.846;2.382;2024-02-23T01:22:10;9.50;6.90
84389;DHT22;74589;48.846;2.382;2024-02-23T01:24:36;9.60;6.60
84389;DHT22;74589;48.846;2.382;2024-02-23T01:27:02;9.50;6.50
84389;DHT22;74589;48.846;2.382;2024-02-23T01:29:28;9.40;6.90
84389;DHT22;74589;48.846;2.382;2024-02-23T01:31:54;9.30;7.70
84389;DHT22;74589;48.846;2.382;2024-02-23T01:34:20;9.30;7.40
84389;DHT22;74589;48.846;2.382;2024-02-23T01:36:46;9.10;7.90
84389;DHT22;74589;48.846;2.382;2024-02-23T01:39:12;9.10;8.50
84389;DHT22;74589;48.846;2.382;2024-02-23T01:41:38;9.20;8.00
84389;DHT22;74589;48.846;2.382;2024-02-23T01:44:04;9.30;7.90
84389;DHT22;74589;48.846;2.382;2024-02-23T01:46:30;9.30;8.00
84389;DHT22;74589;48.846;2.382;2024-02-23T01:48:56;9.40;7.30
84389;DHT22;74589;48.846;2.382;2024-02-23T01:51:22;9.40;7.60
84389;DHT22;74589;48.846;2.382;2024-02-23T01:53:48;9.50;7.20
84389;DHT22;74589;48.846;2.382;2024-02-23T01:56:14;9.40;7.50
84389;DHT22;74589;48.846;2.382;2024-02-23T01:58:44;9.50;6.90
84389;DHT22;74589;48.846;2.382;2024-02-23T02:01:10;9.40;6.50
84389;DHT22;74589;48.846;2.382;2024-02-23T02:03:38;9.40;6.90
84389;DHT22;74589;48.846;2.382;2024-02-23T02:06:05;9.30;7.30
84389;DHT22;74589;48.846;2.382;2024-02-23T02:08:33;9.10;8.10
84389;DHT22;74589;48.846;2.382;2024-02-23T02:10:59;9.00;8.30
84389;DHT22;74589;48.846;2.382;2024-02-23T02:13:24;8.90;8.60
84389;DHT22;74589;48.846;2.382;2024-02-23T02:15:50;9.10;8.10
84389;DHT22;74589;48.846;2.382;2024-02-23T02:18:16;9.20;7.70
84389;DHT22;74589;48.846;2.382;2024-02-23T02:20:53;9.00;8.00
84389;DHT22;74589;48.846;2.382;2024-02-23T02:23:19;9.10;7.80
84389;DHT22;74589;48.846;2.382;2024-02-23T02:25:45;9.10;8.10
84389;DHT22;74589;48.846;2.382;2024-02-23T02:28:11;9.10;8.30
84389;DHT22;74589;48.846;2.382;2024-02-23T02:30:37;9.10;8.50
84389;DHT22;74589;48.846;2.382;2024-02-23T02:33:03;9.10;8.20
84389;DHT22;74589;48.846;2.382;2024-02-23T02:35:29;9.20;8.10
84389;DHT22;74589;48.846;2.382;2024-02-23T02:37:54;9.10;7.70
84389;DHT22;74589;48.846;2.382;2024-02-23T02:40:20;9.20;7.60
84389;DHT22;74589;48.846;2.382;2024-02-23T02:42:46;9.10;8.10
84389;DHT22;74589;48.846;2.382;2024-02-23T02:45:12;9.20;7.90
84389;DHT22;74589;48.846;2.382;2024-02-23T02:47:37;9.30;7.80
84389;DHT22;74589;48.846;2.382;2024-02-23T02:50:03;9.30;8.00
84389;DHT22;74589;48.846;2.382;2024-02-23T02:52:32;9.30;8.30
84389;DHT22;74589;48.846;2.382;2024-02-23T02:54:57;9.20;7.90
84389;DHT22;74589;48.846;2.382;2024-02-23T02:57:23;9.20;7.50
84389;DHT22;74589;48.846;2.382;2024-02-23T02:59:49;9.10;7.90
84389;DHT22;74589;48.846;2.382;2024-02-23T03:02:15;9.20;7.80
84389;DHT22;74589;48.846;2.382;2024-02-23T03:04:50;9.40;7.00
84389;DHT22;74589;48.846;2.382;2024-02-23T03:07:17;9.20;7.10
84389;DHT22;74589;48.846;2.382;2024-02-23T03:09:43;9.10;7.50
84389;DHT22;74589;48.846;2.382;2024-02-23T03:12:09;9.00;8.00
84389;DHT22;74589;48.846;2.382;2024-02-23T03:14:35;8.90;8.60
84389;DHT22;74589;48.846;2.382;2024-02-23T03:17:02;9.20;7.20
84389;DHT22;74589;48.846;2.382;2024-02-23T03:19:29;9.20;7.20
84389;DHT22;74589;48.846;2.382;2024-02-23T03:21:54;9.20;7.10
84389;DHT22;74589;48.846;2.382;2024-02-23T03:24:20;8.90;8.10
84389;DHT22;74589;48.846;2.382;2024-02-23T03:26:46;8.80;8.70
84389;DHT22;74589;48.846;2.382;2024-02-23T03:29:11;8.70;9.30
84389;DHT22;74589;48.846;2.382;2024-02-23T03:31:37;8.80;8.80
84389;DHT22;74589;48.846;2.382;2024-02-23T03:34:03;8.70;8.60
84389;DHT22;74589;48.846;2.382;2024-02-23T03:36:28;8.80;8.70
84389;DHT22;74589;48.846;2.382;2024-02-23T03:38:54;8.80;8.30
84389;DHT22;74589;48.846;2.382;2024-02-23T03:41:20;8.90;8.30
84389;DHT22;74589;48.846;2.382;2024-02-23T03:43:45;8.90;8.70
84389;DHT22;74589;48.846;2.382;2024-02-23T03:46:11;8.80;9.00
84389;DHT22;74589;48.846;2.382;2024-02-23T03:48:37;8.80;8.30
84389;DHT22;74589;48.846;2.382;2024-02-23T03:51:08;8.60;9.50
84389;DHT22;74589;48.846;2.382;2024-02-23T03:53:34;8.40;10.80
84389;DHT22;74589;48.846;2.382;2024-02-23T03:55:59;8.40;10.90
84389;DHT22;74589;48.846;2.382;2024-02-23T03:58:25;8.40;11.10
84389;DHT22;74589;48.846;2.382;2024-02-23T04:00:51;8.60;10.40
84389;DHT22;74589;48.846;2.382;2024-02-23T04:03:17;8.80;9.20
84389;DHT22;74589;48.846;2.382;2024-02-23T04:05:43;8.80;9.30
84389;DHT22;74589;48.846;2.382;2024-02-23T04:08:08;8.80;9.10
84389;DHT22;74589;48.846;2.382;2024-02-23T04:10:34;9.00;8.50
84389;DHT22;74589;48.846;2.382;2024-02-23T04:13:00;8.80;9.60
84389;DHT22;74589;48.846;2.382;2024-02-23T04:15:26;8.80;9.10
84389;DHT22;74589;48.846;2.382;2024-02-23T04:17:52;8.80;9.50
84389;DHT22;74589;48.846;2.382;2024-02-23T04:20:17;8.90;8.50
84389;DHT22;74589;48.846;2.382;2024-02-23T04:22:43;8.90;8.60
84389;DHT22;74589;48.846;2.382;2024-02-23T04:25:09;8.80;9.10
84389;DHT22;74589;48.846;2.382;2024-02-23T04:27:35;8.70;9.60
84389;DHT22;74589;48.846;2.382;2024-02-23T04:30:01;8.60;10.20
84389;DHT22;74589;48.846;2.382;2024-02-23T04:32:26;8.50;10.30
84389;DHT22;74589;48.846;2.382;2024-02-23T04:34:52;8.50;10.90
84389;DHT22;74589;48.846;2.382;2024-02-23T04:37:18;8.40;10.90
84389;DHT22;74589;48.846;2.382;2024-02-23T04:39:44;8.40;11.20
84389;DHT22;74589;48.846;2.382;2024-02-23T04:42:09;8.40;11.70
84389;DHT22;74589;48.846;2.382;2024-02-23T04:44:35;8.40;11.30
84389;DHT22;74589;48.846;2.382;2024-02-23T04:47:01;8.30;11.80
84389;DHT22;74589;48.846;2.382;2024-02-23T04:49:28;8.30;12.00
84389;DHT22;74589;48.846;2.382;2024-02-23T04:51:54;8.40;11.20
84389;DHT22;74589;48.846;2.382;2024-02-23T04:54:19;8.30;11.20
84389;DHT22;74589;48.846;2.382;2024-02-23T04:56:46;8.40;11.30
84389;DHT22;74589;48.846;2.382;2024-02-23T04:59:13;8.50;11.20
84389;DHT22;74589;48.846;2.382;2024-02-23T05:01:38;8.30;11.20
84389;DHT22;74589;48.846;2.382;2024-02-23T05:04:04;8.20;11.40
84389;DHT22;74589;48.846;2.382;2024-02-23T05:06:30;8.20;11.50
84389;DHT22;74589;48.846;2.382;2024-02-23T05:08:56;8.10;12.70
84389;DHT22;74589;48.846;2.382;2024-02-23T05:11:21;8.20;12.20
84389;DHT22;74589;48.846;2.382;2024-02-23T05:13:47;8.30;12.00
84389;DHT22;74589;48.846;2.382;2024-02-23T05:16:16;8.30;11.50
84389;DHT22;74589;48.846;2.382;2024-02-23T05:18:43;8.20;11.70
84389;DHT22;74589;48.846;2.382;2024-02-23T05:21:09;8.30;11.50
84389;DHT22;74589;48.846;2.382;2024-02-23T05:23:35;8.20;12.10
84389;DHT22;74589;48.846;2.382;2024-02-23T05:26:01;8.10;11.90
84389;DHT22;74589;48.846;2.382;2024-02-23T05:28:26;8.10;12.20
84389;DHT22;74589;48.846;2.382;2024-02-23T05:30:54;8.20;11.70
84389;DHT22;74589;48.846;2.382;2024-02-23T05:33:19;8.10;12.30
84389;DHT22;74589;48.846;2.382;2024-02-23T05:35:46;8.20;11.70
84389;DHT22;74589;48.846;2.382;2024-02-23T05:38:14;8.20;11.70
84389;DHT22;74589;48.846;2.382;2024-02-23T05:40:40;8.10;12.00
84389;DHT22;74589;48.846;2.382;2024-02-23T05:43:06;8.10;12.60
84389;DHT22;74589;48.846;2.382;2024-02-23T05:45:31;8.10;12.50
84389;DHT22;74589;48.846;2.382;2024-02-23T05:47:57;8.10;12.20
84389;DHT22;74589;48.846;2.382;2024-02-23T05:50:23;8.20;11.70
84389;DHT22;74589;48.846;2.382;2024-02-23T05:52:49;8.30;11.30
84389;DHT22;74589;48.846;2.382;2024-02-23T05:55:14;8.20;12.10
84389;DHT22;74589;48.846;2.382;2024-02-23T05:57:40;8.20;12.20
84389;DHT22;74589;48.846;2.382;2024-02-23T06:00:07;8.30;11.80
84389;DHT22;74589;48.846;2.382;2024-02-23T06:02:35;8.40;11.30
84389;DHT22;74589;48.846;2.382;2024-02-23T06:05:01;8.30;11.30
84389;DHT22;74589;48.846;2.382;2024-02-23T06:07:26;8.30;11.60
84389;DHT22;74589;48.846;2.382;2024-02-23T06:09:55;8.30;11.30
84389;DHT22;74589;48.846;2.382;2024-02-23T06:12:22;8.20;11.60
84389;DHT22;74589;48.846;2.382;2024-02-23T06:14:47;8.30;11.80
84389;DHT22;74589;48.846;2.382;2024-02-23T06:17:13;8.20;12.20
84389;DHT22;74589;48.846;2.382;2024-02-23T06:19:38;8.10;12.30
84389;DHT22;74589;48.846;2.382;2024-02-23T06:22:04;8.10;12.10
84389;DHT22;74589;48.846;2.382;2024-02-23T06:24:29;8.10;12.50
84389;DHT22;74589;48.846;2.382;2024-02-23T06:26:55;8.20;11.90
84389;DHT22;74589;48.846;2.382;2024-02-23T06:29:23;8.20;12.00
84389;DHT22;74589;48.846;2.382;2024-02-23T06:31:48;8.10;12.50
84389;DHT22;74589;48.846;2.382;2024-02-23T06:34:15;8.10;12.10
84389;DHT22;74589;48.846;2.382;2024-02-23T06:36:41;8.10;12.10
84389;DHT22;74589;48.846;2.382;2024-02-23T06:39:07;8.00;12.40
84389;DHT22;74589;48.846;2.382;2024-02-23T06:41:34;8.10;12.50
84389;DHT22;74589;48.846;2.382;2024-02-23T06:43:59;8.20;12.20
84389;DHT22;74589;48.846;2.382;2024-02-23T06:46:26;8.00;12.40
84389;DHT22;74589;48.846;2.382;2024-02-23T06:48:52;8.10;12.60
84389;DHT22;74589;48.846;2.382;2024-02-23T06:51:17;8.10;12.30
84389;DHT22;74589;48.846;2.382;2024-02-23T06:53:45;7.90;13.00
84389;DHT22;74589;48.846;2.382;2024-02-23T06:56:11;8.10;12.50
84389;DHT22;74589;48.846;2.382;2024-02-23T06:58:37;8.10;12.90
84389;DHT22;74589;48.846;2.382;2024-02-23T07:01:04;8.00;12.60
84389;DHT22;74589;48.846;2.382;2024-02-23T07:03:31;8.30;11.90
84389;DHT22;74589;48.846;2.382;2024-02-23T07:05:57;8.30;11.60
84389;DHT22;74589;48.846;2.382;2024-02-23T07:08:23;8.30;11.30
84389;DHT22;74589;48.846;2.382;2024-02-23T07:10:48;8.40;11.30
84389;DHT22;74589;48.846;2.382;2024-02-23T07:13:14;8.10;12.20
84389;DHT22;74589;48.846;2.382;2024-02-23T07:15:39;8.20;12.80
84389;DHT22;74589;48.846;2.382;2024-02-23T07:18:05;8.30;11.70
84389;DHT22;74589;48.846;2.382;2024-02-23T07:20:31;8.30;12.10
84389;DHT22;74589;48.846;2.382;2024-02-23T07:22:56;8.20;12.50
84389;DHT22;74589;48.846;2.382;2024-02-23T07:25:22;8.20;12.90
84389;DHT22;74589;48.846;2.382;2024-02-23T07:27:48;8.30;12.40
84389;DHT22;74589;48.846;2.382;2024-02-23T07:30:14;8.30;11.50
84389;DHT22;74589;48.846;2.382;2024-02-23T07:32:41;8.20;12.70
84389;DHT22;74589;48.846;2.382;2024-02-23T07:35:07;8.50;11.00
84389;DHT22;74589;48.846;2.382;2024-02-23T07:37:33;8.60;10.90
84389;DHT22;74589;48.846;2.382;2024-02-23T07:39:59;8.60;10.80
84389;DHT22;74589;48.846;2.382;2024-02-23T07:42:24;8.60;11.10
84389;DHT22;74589;48.846;2.382;2024-02-23T07:44:51;8.60;11.30
84389;DHT22;74589;48.846;2.382;2024-02-23T07:47:16;8.80;10.90
84389;DHT22;74589;48.846;2.382;2024-02-23T07:49:42;8.80;10.80
84389;DHT22;74589;48.846;2.382;2024-02-23T07:52:08;8.80;10.70
84389;DHT22;74589;48.846;2.382;2024-02-23T07:54:34;8.90;10.70
84389;DHT22;74589;48.846;2.382;2024-02-23T07:57:00;8.80;11.60
84389;DHT22;74589;48.846;2.382;2024-02-23T07:59:25;9.00;10.50
84389;DHT22;74589;48.846;2.382;2024-02-23T08:01:51;8.90;10.50
84389;DHT22;74589;48.846;2.382;2024-02-23T08:04:17;8.80;10.60
84389;DHT22;74589;48.846;2.382;2024-02-23T08:06:42;9.00;10.80
84389;DHT22;74589;48.846;2.382;2024-02-23T08:09:08;9.10;10.40
84389;DHT22;74589;48.846;2.382;2024-02-23T08:11:35;8.90;11.00
84389;DHT22;74589;48.846;2.382;2024-02-23T08:14:01;9.10;10.40
84389;DHT22;74589;48.846;2.382;2024-02-23T08:16:28;9.10;10.00
84389;DHT22;74589;48.846;2.382;2024-02-23T08:18:54;9.10;10.20
84389;DHT22;74589;48.846;2.382;2024-02-23T08:21:19;9.10;10.70
84389;DHT22;74589;48.846;2.382;2024-02-23T08:23:45;9.00;11.40
84389;DHT22;74589;48.846;2.382;2024-02-23T08:26:11;9.30;9.30
84389;DHT22;74589;48.846;2.382;2024-02-23T08:28:36;9.30;10.20
84389;DHT22;74589;48.846;2.382;2024-02-23T08:31:02;9.30;9.20
84389;DHT22;74589;48.846;2.382;2024-02-23T08:33:28;9.30;9.30
84389;DHT22;74589;48.846;2.382;2024-02-23T08:35:54;9.40;9.10
84389;DHT22;74589;48.846;2.382;2024-02-23T08:38:19;9.30;10.00
84389;DHT22;74589;48.846;2.382;2024-02-23T08:40:45;9.50;10.00
84389;DHT22;74589;48.846;2.382;2024-02-23T08:43:11;9.60;9.20
84389;DHT22;74589;48.846;2.382;2024-02-23T08:45:36;9.70;8.50
84389;DHT22;74589;48.846;2.382;2024-02-23T08:48:02;9.70;8.80
84389;DHT22;74589;48.846;2.382;2024-02-23T08:50:29;9.80;8.30
84389;DHT22;74589;48.846;2.382;2024-02-23T08:52:54;9.80;8.90
84389;DHT22;74589;48.846;2.382;2024-02-23T08:55:20;10.00;7.90
84389;DHT22;74589;48.846;2.382;2024-02-23T08:57:47;9.90;8.50
84389;DHT22;74589;48.846;2.382;2024-02-23T09:00:13;10.00;8.00
84389;DHT22;74589;48.846;2.382;2024-02-23T09:02:40;10.00;8.10
84389;DHT22;74589;48.846;2.382;2024-02-23T09:05:08;10.20;7.70
84389;DHT22;74589;48.846;2.382;2024-02-23T09:07:33;10.40;6.90
84389;DHT22;74589;48.846;2.382;2024-02-23T09:09:59;10.50;6.90
84389;DHT22;74589;48.846;2.382;2024-02-23T09:12:29;10.40;6.30
84389;DHT22;74589;48.846;2.382;2024-02-23T09:14:55;10.30;7.10
84389;DHT22;74589;48.846;2.382;2024-02-23T09:17:21;10.40;7.10
84389;DHT22;74589;48.846;2.382;2024-02-23T09:19:47;10.50;6.70
84389;DHT22;74589;48.846;2.382;2024-02-23T09:22:12;10.50;6.70
84389;DHT22;74589;48.846;2.382;2024-02-23T09:24:41;10.50;7.10
84389;DHT22;74589;48.846;2.382;2024-02-23T09:27:07;10.50;7.20
84389;DHT22;74589;48.846;2.382;2024-02-23T09:29:33;10.70;6.40
84389;DHT22;74589;48.846;2.382;2024-02-23T09:31:59;10.50;7.40
84389;DHT22;74589;48.846;2.382;2024-02-23T09:34:25;10.70;6.40
84389;DHT22;74589;48.846;2.382;2024-02-23T09:36:51;10.70;6.50
84389;DHT22;74589;48.846;2.382;2024-02-23T09:39:17;10.60;6.80
84389;DHT22;74589;48.846;2.382;2024-02-23T09:41:43;10.70;6.40
84389;DHT22;74589;48.846;2.382;2024-02-23T09:44:09;10.70;6.40
84389;DHT22;74589;48.846;2.382;2024-02-23T09:46:40;10.60;7.20
84389;DHT22;74589;48.846;2.382;2024-02-23T09:49:07;10.60;7.60
84389;DHT22;74589;48.846;2.382;2024-02-23T09:51:34;10.70;7.60
84389;DHT22;74589;48.846;2.382;2024-02-23T09:54:01;11.00;6.60
84389;DHT22;74589;48.846;2.382;2024-02-23T09:56:28;11.10;6.70
84389;DHT22;74589;48.846;2.382;2024-02-23T09:58:58;11.10;6.20
84389;DHT22;74589;48.846;2.382;2024-02-23T10:01:28;11.00;6.20
84389;DHT22;74589;48.846;2.382;2024-02-23T10:03:57;11.00;6.40
84389;DHT22;74589;48.846;2.382;2024-02-23T10:06:26;11.30;4.80
84389;DHT22;74589;48.846;2.382;2024-02-23T10:08:52;11.30;4.80
84389;DHT22;74589;48.846;2.382;2024-02-23T10:11:20;11.30;4.90
84389;DHT22;74589;48.846;2.382;2024-02-23T10:13:47;11.20;4.70
84389;DHT22;74589;48.846;2.382;2024-02-23T10:16:15;11.00;5.40
84389;DHT22;74589;48.846;2.382;2024-02-23T10:18:41;11.10;5.20
84389;DHT22;74589;48.846;2.382;2024-02-23T10:21:07;10.90;6.60
84389;DHT22;74589;48.846;2.382;2024-02-23T10:23:33;11.00;6.50
84389;DHT22;74589;48.846;2.382;2024-02-23T10:25:58;11.10;6.30
84389;DHT22;74589;48.846;2.382;2024-02-23T10:28:24;11.10;6.00
84389;DHT22;74589;48.846;2.382;2024-02-23T10:30:50;11.40;5.10
84389;DHT22;74589;48.846;2.382;2024-02-23T10:33:20;11.40;5.00
84389;DHT22;74589;48.846;2.382;2024-02-23T10:35:49;11.50;4.90
84389;DHT22;74589;48.846;2.382;2024-02-23T10:38:18;11.80;3.80
84389;DHT22;74589;48.846;2.382;2024-02-23T10:40:45;11.80;3.00
84389;DHT22;74589;48.846;2.382;2024-02-23T10:43:16;11.50;4.00
84389;DHT22;74589;48.846;2.382;2024-02-23T10:45:43;11.40;4.10
84389;DHT22;74589;48.846;2.382;2024-02-23T10:48:10;11.10;5.20
84389;DHT22;74589;48.846;2.382;2024-02-23T10:50:37;11.40;5.00
84389;DHT22;74589;48.846;2.382;2024-02-23T10:53:04;11.30;6.00
84389;DHT22;74589;48.846;2.382;2024-02-23T10:55:32;11.20;7.10
84389;DHT22;74589;48.846;2.382;2024-02-23T10:57:59;11.30;7.40
84389;DHT22;74589;48.846;2.382;2024-02-23T11:00:25;11.70;7.70
84389;DHT22;74589;48.846;2.382;2024-02-23T11:02:52;12.00;6.70
84389;DHT22;74589;48.846;2.382;2024-02-23T11:05:19;12.30;6.50
84389;DHT22;74589;48.846;2.382;2024-02-23T11:07:49;12.60;5.70
84389;DHT22;74589;48.846;2.382;2024-02-23T11:10:15;12.80;5.20
84389;DHT22;74589;48.846;2.382;2024-02-23T11:12:41;13.20;5.30
84389;DHT22;74589;48.846;2.382;2024-02-23T11:15:07;13.40;3.70
84389;DHT22;74589;48.846;2.382;2024-02-23T11:17:35;13.40;3.40
84389;DHT22;74589;48.846;2.382;2024-02-23T11:20:04;13.50;2.00
84389;DHT22;74589;48.846;2.382;2024-02-23T11:22:32;13.70;1.80
84389;DHT22;74589;48.846;2.382;2024-02-23T11:25:08;13.70;1.20
84389;DHT22;74589;48.846;2.382;2024-02-23T11:27:36;13.40;2.00
84389;DHT22;74589;48.846;2.382;2024-02-23T11:30:04;13.40;1.00
84389;DHT22;74589;48.846;2.382;2024-02-23T11:32:41;13.20;1.00
84389;DHT22;74589;48.846;2.382;2024-02-23T11:35:10;13.00;1.00
84389;DHT22;74589;48.846;2.382;2024-02-23T11:37:55;12.80;1.00
84389;DHT22;74589;48.846;2.382;2024-02-23T11:40:25;12.60;1.00
84389;DHT22;74589;48.846;2.382;2024-02-23T11:42:51;12.50;1.00
84389;DHT22;74589;48.846;2.382;2024-02-23T11:45:17;12.50;1.00
84389;DHT22;74589;48.846;2.382;2024-02-23T11:47:43;12.40;1.00
84389;DHT22;74589;48.846;2.382;2024-02-23T11:50:09;12.40;1.00
84389;DHT22;74589;48.846;2.382;2024-02-23T11:52:37;12.40;1.10
84389;DHT22;74589;48.846;2.382;2024-02-23T11:55:03;12.30;1.90
84389;DHT22;74589;48.846;2.382;2024-02-23T11:57:31;12.20;2.10
84389;DHT22;74589;48.846;2.382;2024-02-23T11:59:57;12.10;2.70
84389;DHT22;74589;48.846;2.382;2024-02-23T12:02:24;12.20;2.20
84389;DHT22;74589;48.846;2.382;2024-02-23T12:04:49;12.40;2.30
84389;DHT22;74589;48.846;2.382;2024-02-23T12:07:15;12.40;1.60
84389;DHT22;74589;48.846;2.382;2024-02-23T12:09:41;12.60;1.30
84389;DHT22;74589;48.846;2.382;2024-02-23T12:12:07;12.70;1.00
84389;DHT22;74589;48.846;2.382;2024-02-23T12:14:36;12.80;1.00
84389;DHT22;74589;48.846;2.382;2024-02-23T12:17:02;12.90;1.00
84389;DHT22;74589;48.846;2.382;2024-02-23T12:19:30;12.90;1.00
84389;DHT22;74589;48.846;2.382;2024-02-23T12:22:00;12.70;1.00
84389;DHT22;74589;48.846;2.382;2024-02-23T12:24:26;12.80;1.00
84389;DHT22;74589;48.846;2.382;2024-02-23T12:26:56;12.70;1.00
84389;DHT22;74589;48.846;2.382;2024-02-23T12:29:22;12.70;1.00
84389;DHT22;74589;48.846;2.382;2024-02-23T12:31:48;12.80;1.00
84389;DHT22;74589;48.846;2.382;2024-02-23T12:34:14;12.60;1.00
84389;DHT22;74589;48.846;2.382;2024-02-23T12:36:40;12.60;1.00
84389;DHT22;74589;48.846;2.382;2024-02-23T12:39:06;12.50;1.00
84389;DHT22;74589;48.846;2.382;2024-02-23T12:41:31;12.70;1.00
84389;DHT22;74589;48.846;2.382;2024-02-23T12:43:57;12.90;1.00
84389;DHT22;74589;48.846;2.382;2024-02-23T12:46:23;12.90;1.00
84389;DHT22;74589;48.846;2.382;2024-02-23T12:48:49;13.10;1.00
84389;DHT22;74589;48.846;2.382;2024-02-23T12:51:15;12.90;1.00
84389;DHT22;74589;48.846;2.382;2024-02-23T12:53:42;13.00;1.00
84389;DHT22;74589;48.846;2.382;2024-02-23T12:56:12;12.90;1.00
84389;DHT22;74589;48.846;2.382;2024-02-23T12:58:42;12.70;1.00
84389;DHT22;74589;48.846;2.382;2024-02-23T13:01:09;12.80;1.00
84389;DHT22;74589;48.846;2.382;2024-02-23T13:03:36;13.00;1.00
84389;DHT22;74589;48.846;2.382;2024-02-23T13:06:02;12.90;1.00
84389;DHT22;74589;48.846;2.382;2024-02-23T13:08:28;13.10;1.00
84389;DHT22;74589;48.846;2.382;2024-02-23T13:10:54;13.10;1.00
84389;DHT22;74589;48.846;2.382;2024-02-23T13:13:21;13.10;1.00
84389;DHT22;74589;48.846;2.382;2024-02-23T13:15:48;13.10;1.00
84389;DHT22;74589;48.846;2.382;2024-02-23T13:18:14;13.00;1.00
84389;DHT22;74589;48.846;2.382;2024-02-23T13:20:40;13.10;1.00
84389;DHT22;74589;48.846;2.382;2024-02-23T13:23:10;13.30;1.00
84389;DHT22;74589;48.846;2.382;2024-02-23T13:25:37;13.20;1.00
84389;DHT22;74589;48.846;2.382;2024-02-23T13:28:03;13.10;1.00
84389;DHT22;74589;48.846;2.382;2024-02-23T13:30:33;13.00;1.00
84389;DHT22;74589;48.846;2.382;2024-02-23T13:32:59;13.20;1.00
84389;DHT22;74589;48.846;2.382;2024-02-23T13:35:25;13.00;1.00
84389;DHT22;74589;48.846;2.382;2024-02-23T13:37:51;13.10;1.00
84389;DHT22;74589;48.846;2.382;2024-02-23T13:40:17;12.90;1.00
84389;DHT22;74589;48.846;2.382;2024-02-23T13:42:43;13.00;1.00
84389;DHT22;74589;48.846;2.382;2024-02-23T13:45:11;13.10;1.00
84389;DHT22;74589;48.846;2.382;2024-02-23T13:47:39;13.10;1.00
84389;DHT22;74589;48.846;2.382;2024-02-23T13:50:05;13.10;1.00
84389;DHT22;74589;48.846;2.382;2024-02-23T13:52:31;13.30;1.00
84389;DHT22;74589;48.846;2.382;2024-02-23T13:54:57;13.40;1.00
84389;DHT22;74589;48.846;2.382;2024-02-23T13:57:23;13.20;1.00
84389;DHT22;74589;48.846;2.382;2024-02-23T13:59:49;13.10;1.00
84389;DHT22;74589;48.846;2.382;2024-02-23T14:02:15;12.90;1.00
84389;DHT22;74589;48.846;2.382;2024-02-23T14:04:40;12.70;1.00
84389;DHT22;74589;48.846;2.382;2024-02-23T14:07:07;12.40;1.00
84389;DHT22;74589;48.846;2.382;2024-02-23T14:09:33;12.70;1.00
84389;DHT22;74589;48.846;2.382;2024-02-23T14:11:58;12.40;1.00
84389;DHT22;74589;48.846;2.382;2024-02-23T14:14:24;12.60;1.00
84389;DHT22;74589;48.846;2.382;2024-02-23T14:16:50;12.60;1.00
84389;DHT22;74589;48.846;2.382;2024-02-23T14:19:16;12.40;1.00
84389;DHT22;74589;48.846;2.382;2024-02-23T14:21:42;12.70;1.00
84389;DHT22;74589;48.846;2.382;2024-02-23T14:24:07;12.40;1.00
84389;DHT22;74589;48.846;2.382;2024-02-23T14:26:33;12.50;1.00
84389;DHT22;74589;48.846;2.382;2024-02-23T14:28:59;12.50;1.00
84389;DHT22;74589;48.846;2.382;2024-02-23T14:31:25;12.60;1.00
84389;DHT22;74589;48.846;2.382;2024-02-23T14:33:51;12.60;1.00
84389;DHT22;74589;48.846;2.382;2024-02-23T14:36:18;12.60;1.00
84389;DHT22;74589;48.846;2.382;2024-02-23T14:38:43;12.40;1.00
84389;DHT22;74589;48.846;2.382;2024-02-23T14:41:09;12.40;1.00
84389;DHT22;74589;48.846;2.382;2024-02-23T14:43:36;12.60;1.00
84389;DHT22;74589;48.846;2.382;2024-02-23T14:46:02;12.60;1.00
84389;DHT22;74589;48.846;2.382;2024-02-23T14:48:28;12.60;1.00
84389;DHT22;74589;48.846;2.382;2024-02-23T14:50:53;12.60;1.00
84389;DHT22;74589;48.846;2.382;2024-02-23T14:53:19;12.30;1.00
84389;DHT22;74589;48.846;2.382;2024-02-23T14:55:45;12.20;1.00
84389;DHT22;74589;48.846;2.382;2024-02-23T14:58:12;12.10;1.00
84389;DHT22;74589;48.846;2.382;2024-02-23T15:00:37;12.20;1.00
84389;DHT22;74589;48.846;2.382;2024-02-23T15:03:03;12.10;1.00
84389;DHT22;74589;48.846;2.382;2024-02-23T15:05:38;12.20;1.00
84389;DHT22;74589;48.846;2.382;2024-02-23T15:08:04;12.20;1.00
84389;DHT22;74589;48.846;2.382;2024-02-23T15:10:30;12.20;1.00
84389;DHT22;74589;48.846;2.382;2024-02-23T15:12:55;12.20;1.00
84389;DHT22;74589;48.846;2.382;2024-02-23T15:15:21;12.30;1.40
84389;DHT22;74589;48.846;2.382;2024-02-23T15:17:46;12.40;2.10
84389;DHT22;74589;48.846;2.382;2024-02-23T15:20:14;12.70;1.90
84389;DHT22;74589;48.846;2.382;2024-02-23T15:22:39;12.90;1.60
84389;DHT22;74589;48.846;2.382;2024-02-23T15:25:08;13.00;1.30
84389;DHT22;74589;48.846;2.382;2024-02-23T15:27:35;13.10;1.00
84389;DHT22;74589;48.846;2.382;2024-02-23T15:30:01;13.10;1.00
84389;DHT22;74589;48.846;2.382;2024-02-23T15:32:26;12.80;1.10
84389;DHT22;74589;48.846;2.382;2024-02-23T15:34:52;12.70;1.60
84389;DHT22;74589;48.846;2.382;2024-02-23T15:37:17;12.60;1.40
84389;DHT22;74589;48.846;2.382;2024-02-23T15:39:43;12.60;1.50
84389;DHT22;74589;48.846;2.382;2024-02-23T15:42:09;12.40;1.80
84389;DHT22;74589;48.846;2.382;2024-02-23T15:44:35;12.70;1.00